ケアンズ国際空港の過去48時間の天気

ケアンズ国際空港 (Cairns Airport)

現在時刻: 9/26 07:19 AEST (9/25 21:19 UTC) 以下の時間は現地時間です。

過去48時間のMETAR気象情報
時間 風向 風速(m/s) 視程 気温(℃) 湿度(%) 気圧(hPa) 天気現象
26 07:00 南東 3 10km以上 24 78 1013
26 06:30 南東 3 10km以上 22 83 1013
26 06:00 南南東 2 10km以上 23 78 1012
26 05:30 南東 2 10km以上 23 83 1012
YBCS 252100Z AUTO 13006KT 9999 // SCT041 SCT048 24/20 Q1013
YBCS 252030Z AUTO 13005KT 9999 // NCD 22/19 Q1013
YBCS 252000Z AUTO 15003KT 9999 // SCT028 SCT048 23/19 Q1012
YBCS 251930Z AUTO 14004KT 9999 // NCD 23/20 Q1012